Tribune, Canada
Current Conditions -  °F | °C
As of 4:35 AM on Sunday 21 Dec 2014 (Local Time) from KD50 Reporting Station
Clear Clear  
Wind Chill:   Ceiling: Unl
Heat Index: 19°   Visibility: 10mi
Dew Point: 19°   Wind: 12mph
Humidity: 100%   Direction: 200°SSW
Pressure: 29.58"   Gusts: NA
Location:  49.25°N, 103.82°W
Report Text: KD50 211035Z AUTO 20010KT 10SM CLR M07/M07 A2958 RMK AO2
Loading
Personal Weather Stations






























Interactive Weather Map New forecast layout! Learn more

10-Day Weather Forecast

Advertisements
Track Severe Weather on mobile